sensor_id;sensor_type;location;lat;lon;timestamp;temperature;humidity
58469;DHT22;44257;44.804;10.220;2023-07-29T00:00:53;23.30;99.90
58469;DHT22;44257;44.804;10.220;2023-07-29T00:03:18;23.40;99.90
58469;DHT22;44257;44.804;10.220;2023-07-29T00:05:45;23.30;99.90
58469;DHT22;44257;44.804;10.220;2023-07-29T00:08:11;23.30;99.90
58469;DHT22;44257;44.804;10.220;2023-07-29T00:10:38;23.30;99.90
58469;DHT22;44257;44.804;10.220;2023-07-29T00:13:04;23.30;99.90
58469;DHT22;44257;44.804;10.220;2023-07-29T00:15:30;23.20;99.90
58469;DHT22;44257;44.804;10.220;2023-07-29T00:17:56;23.20;99.90
58469;DHT22;44257;44.804;10.220;2023-07-29T00:20:22;23.20;99.90
58469;DHT22;44257;44.804;10.220;2023-07-29T00:22:48;23.10;99.90
58469;DHT22;44257;44.804;10.220;2023-07-29T00:25:16;23.10;99.90
58469;DHT22;44257;44.804;10.220;2023-07-29T00:27:42;23.10;99.90
58469;DHT22;44257;44.804;10.220;2023-07-29T00:30:08;23.10;99.90
58469;DHT22;44257;44.804;10.220;2023-07-29T00:32:35;23.10;99.90
58469;DHT22;44257;44.804;10.220;2023-07-29T00:35:01;23.10;99.90
58469;DHT22;44257;44.804;10.220;2023-07-29T00:37:28;23.10;99.90
58469;DHT22;44257;44.804;10.220;2023-07-29T00:39:54;23.10;99.90
58469;DHT22;44257;44.804;10.220;2023-07-29T00:42:20;23.10;99.90
58469;DHT22;44257;44.804;10.220;2023-07-29T00:44:47;23.10;99.90
58469;DHT22;44257;44.804;10.220;2023-07-29T00:47:15;23.00;99.90
58469;DHT22;44257;44.804;10.220;2023-07-29T00:49:43;23.00;99.90
58469;DHT22;44257;44.804;10.220;2023-07-29T00:52:09;22.90;99.90
58469;DHT22;44257;44.804;10.220;2023-07-29T00:54:39;22.90;99.90
58469;DHT22;44257;44.804;10.220;2023-07-29T00:57:08;22.90;99.90
58469;DHT22;44257;44.804;10.220;2023-07-29T00:59:36;22.80;99.90
58469;DHT22;44257;44.804;10.220;2023-07-29T01:02:03;22.70;99.90
58469;DHT22;44257;44.804;10.220;2023-07-29T01:04:31;22.70;99.90
58469;DHT22;44257;44.804;10.220;2023-07-29T01:09:41;22.70;99.90
58469;DHT22;44257;44.804;10.220;2023-07-29T01:12:22;22.70;99.90
58469;DHT22;44257;44.804;10.220;2023-07-29T01:17:43;22.60;99.90
58469;DHT22;44257;44.804;10.220;2023-07-29T01:20:14;22.60;99.90
58469;DHT22;44257;44.804;10.220;2023-07-29T01:22:41;22.60;99.90
58469;DHT22;44257;44.804;10.220;2023-07-29T01:25:07;22.60;99.90
58469;DHT22;44257;44.804;10.220;2023-07-29T01:27:33;22.70;99.90
58469;DHT22;44257;44.804;10.220;2023-07-29T01:29:59;22.60;99.90
58469;DHT22;44257;44.804;10.220;2023-07-29T01:32:38;22.60;99.90
58469;DHT22;44257;44.804;10.220;2023-07-29T01:35:15;22.60;99.90
58469;DHT22;44257;44.804;10.220;2023-07-29T01:37:48;22.60;99.90
58469;DHT22;44257;44.804;10.220;2023-07-29T01:40:15;22.60;99.90
58469;DHT22;44257;44.804;10.220;2023-07-29T01:42:42;22.60;99.90
58469;DHT22;44257;44.804;10.220;2023-07-29T01:45:08;22.80;99.90
58469;DHT22;44257;44.804;10.220;2023-07-29T01:47:34;22.90;99.90
58469;DHT22;44257;44.804;10.220;2023-07-29T01:50:00;22.90;99.90
58469;DHT22;44257;44.804;10.220;2023-07-29T01:52:25;22.80;99.90
58469;DHT22;44257;44.804;10.220;2023-07-29T01:54:51;22.70;99.90
58469;DHT22;44257;44.804;10.220;2023-07-29T01:57:17;22.70;99.90
58469;DHT22;44257;44.804;10.220;2023-07-29T01:59:43;22.60;99.90
58469;DHT22;44257;44.804;10.220;2023-07-29T02:02:09;22.70;99.90
58469;DHT22;44257;44.804;10.220;2023-07-29T02:04:35;22.70;99.90
58469;DHT22;44257;44.804;10.220;2023-07-29T02:07:00;22.60;99.90
58469;DHT22;44257;44.804;10.220;2023-07-29T02:09:26;22.50;99.90
58469;DHT22;44257;44.804;10.220;2023-07-29T02:11:53;22.40;99.90
58469;DHT22;44257;44.804;10.220;2023-07-29T02:14:18;22.30;99.90
58469;DHT22;44257;44.804;10.220;2023-07-29T02:16:44;22.10;99.90
58469;DHT22;44257;44.804;10.220;2023-07-29T02:19:10;22.00;99.90
58469;DHT22;44257;44.804;10.220;2023-07-29T02:21:36;21.90;99.90
58469;DHT22;44257;44.804;10.220;2023-07-29T02:24:02;21.80;99.90
58469;DHT22;44257;44.804;10.220;2023-07-29T02:26:27;21.70;99.90
58469;DHT22;44257;44.804;10.220;2023-07-29T02:28:53;21.70;99.90
58469;DHT22;44257;44.804;10.220;2023-07-29T02:31:24;21.60;99.90
58469;DHT22;44257;44.804;10.220;2023-07-29T02:33:51;21.60;99.90
58469;DHT22;44257;44.804;10.220;2023-07-29T02:36:17;21.60;99.90
58469;DHT22;44257;44.804;10.220;2023-07-29T02:38:44;21.60;99.90
58469;DHT22;44257;44.804;10.220;2023-07-29T02:41:10;21.60;99.90
58469;DHT22;44257;44.804;10.220;2023-07-29T02:43:38;21.50;99.90
58469;DHT22;44257;44.804;10.220;2023-07-29T02:46:06;21.50;99.90
58469;DHT22;44257;44.804;10.220;2023-07-29T02:48:31;21.50;99.90
58469;DHT22;44257;44.804;10.220;2023-07-29T02:50:57;21.40;99.90
58469;DHT22;44257;44.804;10.220;2023-07-29T02:53:24;21.30;99.90
58469;DHT22;44257;44.804;10.220;2023-07-29T02:55:50;21.30;99.90
58469;DHT22;44257;44.804;10.220;2023-07-29T02:58:16;21.20;99.90
58469;DHT22;44257;44.804;10.220;2023-07-29T03:00:42;21.20;99.90
58469;DHT22;44257;44.804;10.220;2023-07-29T03:03:09;21.20;99.90
58469;DHT22;44257;44.804;10.220;2023-07-29T03:05:35;21.10;99.90
58469;DHT22;44257;44.804;10.220;2023-07-29T03:08:01;21.10;99.90
58469;DHT22;44257;44.804;10.220;2023-07-29T03:10:27;21.10;99.90
58469;DHT22;44257;44.804;10.220;2023-07-29T03:12:56;21.00;99.90
58469;DHT22;44257;44.804;10.220;2023-07-29T03:15:25;21.00;99.90
58469;DHT22;44257;44.804;10.220;2023-07-29T03:17:52;21.00;99.90
58469;DHT22;44257;44.804;10.220;2023-07-29T03:20:19;20.90;99.90
58469;DHT22;44257;44.804;10.220;2023-07-29T03:22:46;20.90;99.90
58469;DHT22;44257;44.804;10.220;2023-07-29T03:25:13;20.90;99.90
58469;DHT22;44257;44.804;10.220;2023-07-29T03:27:39;20.90;99.90
58469;DHT22;44257;44.804;10.220;2023-07-29T03:30:06;20.90;99.90
58469;DHT22;44257;44.804;10.220;2023-07-29T03:32:33;20.90;99.90
58469;DHT22;44257;44.804;10.220;2023-07-29T03:34:59;20.90;99.90
58469;DHT22;44257;44.804;10.220;2023-07-29T03:37:25;20.80;99.90
58469;DHT22;44257;44.804;10.220;2023-07-29T03:39:51;20.80;99.90
58469;DHT22;44257;44.804;10.220;2023-07-29T03:42:18;20.70;99.90
58469;DHT22;44257;44.804;10.220;2023-07-29T03:44:44;20.70;99.90
58469;DHT22;44257;44.804;10.220;2023-07-29T03:47:09;20.70;99.90
58469;DHT22;44257;44.804;10.220;2023-07-29T03:49:37;20.60;99.90
58469;DHT22;44257;44.804;10.220;2023-07-29T03:52:03;20.60;99.90
58469;DHT22;44257;44.804;10.220;2023-07-29T03:54:29;20.50;99.90
58469;DHT22;44257;44.804;10.220;2023-07-29T03:56:55;20.50;99.90
58469;DHT22;44257;44.804;10.220;2023-07-29T03:59:21;20.40;99.90
58469;DHT22;44257;44.804;10.220;2023-07-29T04:01:48;20.30;99.90
58469;DHT22;44257;44.804;10.220;2023-07-29T04:04:14;20.30;99.90
58469;DHT22;44257;44.804;10.220;2023-07-29T04:06:40;20.30;99.90
58469;DHT22;44257;44.804;10.220;2023-07-29T04:09:06;20.40;99.90
58469;DHT22;44257;44.804;10.220;2023-07-29T04:11:32;20.40;99.90
58469;DHT22;44257;44.804;10.220;2023-07-29T04:13:57;20.40;99.90
58469;DHT22;44257;44.804;10.220;2023-07-29T04:16:23;20.40;99.90
58469;DHT22;44257;44.804;10.220;2023-07-29T04:18:49;20.40;99.90
58469;DHT22;44257;44.804;10.220;2023-07-29T04:21:15;20.40;99.90
58469;DHT22;44257;44.804;10.220;2023-07-29T04:23:41;20.40;99.90
58469;DHT22;44257;44.804;10.220;2023-07-29T04:26:07;20.40;99.90
58469;DHT22;44257;44.804;10.220;2023-07-29T04:28:32;20.40;99.90
58469;DHT22;44257;44.804;10.220;2023-07-29T04:30:58;20.40;99.90
58469;DHT22;44257;44.804;10.220;2023-07-29T04:33:25;20.40;99.90
58469;DHT22;44257;44.804;10.220;2023-07-29T04:35:51;20.40;99.90
58469;DHT22;44257;44.804;10.220;2023-07-29T04:38:16;20.50;99.90
58469;DHT22;44257;44.804;10.220;2023-07-29T04:40:42;20.60;99.90
58469;DHT22;44257;44.804;10.220;2023-07-29T04:43:08;20.70;99.90
58469;DHT22;44257;44.804;10.220;2023-07-29T04:45:34;20.80;99.90
58469;DHT22;44257;44.804;10.220;2023-07-29T04:48:02;21.00;99.90
58469;DHT22;44257;44.804;10.220;2023-07-29T04:50:28;21.10;99.90
58469;DHT22;44257;44.804;10.220;2023-07-29T04:52:54;21.30;99.90
58469;DHT22;44257;44.804;10.220;2023-07-29T04:55:20;21.40;99.90
58469;DHT22;44257;44.804;10.220;2023-07-29T04:57:45;21.50;99.90
58469;DHT22;44257;44.804;10.220;2023-07-29T05:00:11;21.70;99.90
58469;DHT22;44257;44.804;10.220;2023-07-29T05:02:37;21.70;99.90
58469;DHT22;44257;44.804;10.220;2023-07-29T05:05:05;21.80;99.90
58469;DHT22;44257;44.804;10.220;2023-07-29T05:07:30;21.90;99.90
58469;DHT22;44257;44.804;10.220;2023-07-29T05:09:56;21.90;99.90
58469;DHT22;44257;44.804;10.220;2023-07-29T05:12:22;22.00;99.90
58469;DHT22;44257;44.804;10.220;2023-07-29T05:14:48;22.10;99.90
58469;DHT22;44257;44.804;10.220;2023-07-29T05:17:14;22.20;99.90
58469;DHT22;44257;44.804;10.220;2023-07-29T05:19:40;22.20;99.90
58469;DHT22;44257;44.804;10.220;2023-07-29T05:22:06;22.40;99.90
58469;DHT22;44257;44.804;10.220;2023-07-29T05:24:32;22.80;99.90
58469;DHT22;44257;44.804;10.220;2023-07-29T05:26:57;23.50;99.90
58469;DHT22;44257;44.804;10.220;2023-07-29T05:29:23;24.20;99.90
58469;DHT22;44257;44.804;10.220;2023-07-29T05:31:49;24.80;99.90
58469;DHT22;44257;44.804;10.220;2023-07-29T05:34:15;25.20;99.90
58469;DHT22;44257;44.804;10.220;2023-07-29T05:36:41;25.50;99.90
58469;DHT22;44257;44.804;10.220;2023-07-29T05:39:07;25.60;99.90
58469;DHT22;44257;44.804;10.220;2023-07-29T05:41:33;25.60;99.90
58469;DHT22;44257;44.804;10.220;2023-07-29T05:43:58;25.50;99.90
58469;DHT22;44257;44.804;10.220;2023-07-29T05:46:24;25.40;99.90
58469;DHT22;44257;44.804;10.220;2023-07-29T05:48:50;25.40;99.90
58469;DHT22;44257;44.804;10.220;2023-07-29T05:51:16;25.30;99.90
58469;DHT22;44257;44.804;10.220;2023-07-29T05:53:41;25.20;99.90
58469;DHT22;44257;44.804;10.220;2023-07-29T05:56:07;25.10;99.90
58469;DHT22;44257;44.804;10.220;2023-07-29T05:58:33;25.00;99.90
58469;DHT22;44257;44.804;10.220;2023-07-29T06:00:59;25.00;99.90
58469;DHT22;44257;44.804;10.220;2023-07-29T06:03:25;25.10;99.90
58469;DHT22;44257;44.804;10.220;2023-07-29T06:05:51;25.20;99.90
58469;DHT22;44257;44.804;10.220;2023-07-29T06:08:17;25.60;99.90
58469;DHT22;44257;44.804;10.220;2023-07-29T06:10:44;26.30;99.90
58469;DHT22;44257;44.804;10.220;2023-07-29T06:13:10;27.00;99.90
58469;DHT22;44257;44.804;10.220;2023-07-29T06:15:36;27.70;99.90
58469;DHT22;44257;44.804;10.220;2023-07-29T06:18:01;28.40;99.90
58469;DHT22;44257;44.804;10.220;2023-07-29T06:20:28;28.90;99.90
58469;DHT22;44257;44.804;10.220;2023-07-29T06:22:54;29.40;99.90
58469;DHT22;44257;44.804;10.220;2023-07-29T06:25:20;30.00;99.90
58469;DHT22;44257;44.804;10.220;2023-07-29T06:27:46;30.40;99.90
58469;DHT22;44257;44.804;10.220;2023-07-29T06:30:12;30.80;99.90
58469;DHT22;44257;44.804;10.220;2023-07-29T06:32:37;31.00;99.90
58469;DHT22;44257;44.804;10.220;2023-07-29T06:35:03;31.30;99.90
58469;DHT22;44257;44.804;10.220;2023-07-29T06:37:29;31.70;99.20
58469;DHT22;44257;44.804;10.220;2023-07-29T06:39:56;32.00;97.60
58469;DHT22;44257;44.804;10.220;2023-07-29T06:42:22;32.00;98.10
58469;DHT22;44257;44.804;10.220;2023-07-29T06:44:48;32.00;98.40
58469;DHT22;44257;44.804;10.220;2023-07-29T06:47:13;31.80;96.50
58469;DHT22;44257;44.804;10.220;2023-07-29T06:49:39;31.40;96.90
58469;DHT22;44257;44.804;10.220;2023-07-29T06:52:05;30.90;97.50
58469;DHT22;44257;44.804;10.220;2023-07-29T06:54:31;30.60;97.90
58469;DHT22;44257;44.804;10.220;2023-07-29T06:56:57;30.20;99.30
58469;DHT22;44257;44.804;10.220;2023-07-29T06:59:23;29.90;99.40
58469;DHT22;44257;44.804;10.220;2023-07-29T07:01:50;29.70;99.90
58469;DHT22;44257;44.804;10.220;2023-07-29T07:04:16;29.60;99.90
58469;DHT22;44257;44.804;10.220;2023-07-29T07:06:41;29.60;99.90
58469;DHT22;44257;44.804;10.220;2023-07-29T07:09:07;29.50;99.90
58469;DHT22;44257;44.804;10.220;2023-07-29T07:11:35;29.60;99.90
58469;DHT22;44257;44.804;10.220;2023-07-29T07:14:01;29.60;99.90
58469;DHT22;44257;44.804;10.220;2023-07-29T07:16:27;29.50;99.90
58469;DHT22;44257;44.804;10.220;2023-07-29T07:18:57;29.50;99.90
58469;DHT22;44257;44.804;10.220;2023-07-29T07:21:23;29.50;99.90
58469;DHT22;44257;44.804;10.220;2023-07-29T07:23:50;29.40;99.90
58469;DHT22;44257;44.804;10.220;2023-07-29T07:26:16;29.50;99.90
58469;DHT22;44257;44.804;10.220;2023-07-29T07:28:42;29.60;99.90
58469;DHT22;44257;44.804;10.220;2023-07-29T07:31:07;29.80;99.90
58469;DHT22;44257;44.804;10.220;2023-07-29T07:33:33;29.80;99.90
58469;DHT22;44257;44.804;10.220;2023-07-29T07:35:59;30.00;99.90
58469;DHT22;44257;44.804;10.220;2023-07-29T07:38:25;30.10;98.70
58469;DHT22;44257;44.804;10.220;2023-07-29T07:40:55;29.90;99.70
58469;DHT22;44257;44.804;10.220;2023-07-29T07:43:22;29.90;99.90
58469;DHT22;44257;44.804;10.220;2023-07-29T07:45:48;30.10;99.90
58469;DHT22;44257;44.804;10.220;2023-07-29T07:48:13;30.20;99.90
58469;DHT22;44257;44.804;10.220;2023-07-29T07:50:39;30.40;99.50
58469;DHT22;44257;44.804;10.220;2023-07-29T07:53:06;30.50;98.70
58469;DHT22;44257;44.804;10.220;2023-07-29T07:55:31;30.60;98.40
58469;DHT22;44257;44.804;10.220;2023-07-29T07:57:57;30.50;98.10
58469;DHT22;44257;44.804;10.220;2023-07-29T08:00:23;30.40;98.20
58469;DHT22;44257;44.804;10.220;2023-07-29T08:02:49;30.30;97.90
58469;DHT22;44257;44.804;10.220;2023-07-29T08:05:14;30.00;98.00
58469;DHT22;44257;44.804;10.220;2023-07-29T08:07:40;29.80;98.10
58469;DHT22;44257;44.804;10.220;2023-07-29T08:10:06;29.70;98.60
58469;DHT22;44257;44.804;10.220;2023-07-29T08:12:33;29.70;99.10
58469;DHT22;44257;44.804;10.220;2023-07-29T08:14:59;29.90;99.30
58469;DHT22;44257;44.804;10.220;2023-07-29T08:17:25;30.10;99.70
58469;DHT22;44257;44.804;10.220;2023-07-29T08:19:50;30.40;98.50
58469;DHT22;44257;44.804;10.220;2023-07-29T08:22:16;30.60;98.70
58469;DHT22;44257;44.804;10.220;2023-07-29T08:24:46;30.70;98.40
58469;DHT22;44257;44.804;10.220;2023-07-29T08:27:11;30.80;99.00
58469;DHT22;44257;44.804;10.220;2023-07-29T08:29:38;30.80;99.10
58469;DHT22;44257;44.804;10.220;2023-07-29T08:32:04;30.80;98.90
58469;DHT22;44257;44.804;10.220;2023-07-29T08:34:30;30.80;98.10
58469;DHT22;44257;44.804;10.220;2023-07-29T08:36:56;31.00;98.60
58469;DHT22;44257;44.804;10.220;2023-07-29T08:39:21;31.00;97.10
58469;DHT22;44257;44.804;10.220;2023-07-29T08:42:08;31.00;97.40
58469;DHT22;44257;44.804;10.220;2023-07-29T08:44:43;31.10;97.80
58469;DHT22;44257;44.804;10.220;2023-07-29T08:47:10;31.10;97.20
58469;DHT22;44257;44.804;10.220;2023-07-29T08:49:37;30.80;97.00
58469;DHT22;44257;44.804;10.220;2023-07-29T08:52:04;30.50;97.60
58469;DHT22;44257;44.804;10.220;2023-07-29T08:54:30;30.50;99.20
58469;DHT22;44257;44.804;10.220;2023-07-29T08:56:57;30.70;97.70
58469;DHT22;44257;44.804;10.220;2023-07-29T08:59:23;30.70;97.50
58469;DHT22;44257;44.804;10.220;2023-07-29T09:01:49;30.90;98.40
58469;DHT22;44257;44.804;10.220;2023-07-29T09:04:15;31.10;98.40
58469;DHT22;44257;44.804;10.220;2023-07-29T09:06:43;31.30;97.90
58469;DHT22;44257;44.804;10.220;2023-07-29T09:09:09;31.40;96.70
58469;DHT22;44257;44.804;10.220;2023-07-29T09:11:35;31.30;96.70
58469;DHT22;44257;44.804;10.220;2023-07-29T09:14:01;31.30;96.50
58469;DHT22;44257;44.804;10.220;2023-07-29T09:16:27;31.40;96.90
58469;DHT22;44257;44.804;10.220;2023-07-29T09:18:53;31.50;96.40
58469;DHT22;44257;44.804;10.220;2023-07-29T09:21:25;31.50;97.30
58469;DHT22;44257;44.804;10.220;2023-07-29T09:23:52;31.60;97.50
58469;DHT22;44257;44.804;10.220;2023-07-29T09:26:26;31.70;96.70
58469;DHT22;44257;44.804;10.220;2023-07-29T09:28:53;31.90;96.10
58469;DHT22;44257;44.804;10.220;2023-07-29T09:31:24;31.90;95.40
58469;DHT22;44257;44.804;10.220;2023-07-29T09:33:58;31.70;95.20
58469;DHT22;44257;44.804;10.220;2023-07-29T09:36:26;31.30;95.40
58469;DHT22;44257;44.804;10.220;2023-07-29T09:38:53;31.10;96.00
58469;DHT22;44257;44.804;10.220;2023-07-29T09:41:25;31.10;97.00
58469;DHT22;44257;44.804;10.220;2023-07-29T09:44:03;31.20;96.50
58469;DHT22;44257;44.804;10.220;2023-07-29T09:46:34;31.20;95.80
58469;DHT22;44257;44.804;10.220;2023-07-29T09:49:05;30.90;96.50
58469;DHT22;44257;44.804;10.220;2023-07-29T09:51:41;30.90;96.00
58469;DHT22;44257;44.804;10.220;2023-07-29T09:54:09;30.90;97.00
58469;DHT22;44257;44.804;10.220;2023-07-29T09:56:39;31.10;96.80
58469;DHT22;44257;44.804;10.220;2023-07-29T09:59:06;31.40;97.10
58469;DHT22;44257;44.804;10.220;2023-07-29T10:01:33;31.70;95.70
58469;DHT22;44257;44.804;10.220;2023-07-29T10:04:03;32.00;96.20
58469;DHT22;44257;44.804;10.220;2023-07-29T10:06:29;32.30;96.00
58469;DHT22;44257;44.804;10.220;2023-07-29T10:08:55;32.70;94.60
58469;DHT22;44257;44.804;10.220;2023-07-29T10:11:21;32.90;94.80
58469;DHT22;44257;44.804;10.220;2023-07-29T10:13:48;33.10;93.90
58469;DHT22;44257;44.804;10.220;2023-07-29T10:16:15;33.00;93.30
58469;DHT22;44257;44.804;10.220;2023-07-29T10:18:42;32.60;93.70
58469;DHT22;44257;44.804;10.220;2023-07-29T10:21:09;32.50;94.40
58469;DHT22;44257;44.804;10.220;2023-07-29T10:23:42;32.40;94.90
58469;DHT22;44257;44.804;10.220;2023-07-29T10:26:10;32.20;94.40
58469;DHT22;44257;44.804;10.220;2023-07-29T10:28:40;32.10;94.20
58469;DHT22;44257;44.804;10.220;2023-07-29T10:31:07;32.00;94.30
58469;DHT22;44257;44.804;10.220;2023-07-29T10:33:34;32.10;94.40
58469;DHT22;44257;44.804;10.220;2023-07-29T10:36:00;32.10;94.40
58469;DHT22;44257;44.804;10.220;2023-07-29T10:38:26;32.30;93.90
58469;DHT22;44257;44.804;10.220;2023-07-29T10:40:55;32.40;93.60
58469;DHT22;44257;44.804;10.220;2023-07-29T10:43:33;32.40;93.10
58469;DHT22;44257;44.804;10.220;2023-07-29T10:48:44;32.40;93.20
58469;DHT22;44257;44.804;10.220;2023-07-29T10:51:29;32.30;93.30
58469;DHT22;44257;44.804;10.220;2023-07-29T10:54:18;32.40;92.80
58469;DHT22;44257;44.804;10.220;2023-07-29T10:56:47;32.30;92.90
58469;DHT22;44257;44.804;10.220;2023-07-29T11:01:53;32.30;94.40
58469;DHT22;44257;44.804;10.220;2023-07-29T11:15:11;32.80;92.10
58469;DHT22;44257;44.804;10.220;2023-07-29T11:20:10;32.70;92.30
58469;DHT22;44257;44.804;10.220;2023-07-29T11:22:36;32.70;91.70
58469;DHT22;44257;44.804;10.220;2023-07-29T11:25:03;32.50;92.20
58469;DHT22;44257;44.804;10.220;2023-07-29T11:27:29;32.20;92.80
58469;DHT22;44257;44.804;10.220;2023-07-29T11:29:59;32.20;92.00
58469;DHT22;44257;44.804;10.220;2023-07-29T11:32:26;32.20;92.00
58469;DHT22;44257;44.804;10.220;2023-07-29T11:34:52;32.40;92.00
58469;DHT22;44257;44.804;10.220;2023-07-29T11:37:18;32.40;91.90
58469;DHT22;44257;44.804;10.220;2023-07-29T11:39:46;32.60;93.70
58469;DHT22;44257;44.804;10.220;2023-07-29T11:42:16;32.60;91.90
58469;DHT22;44257;44.804;10.220;2023-07-29T11:44:42;32.70;92.00
58469;DHT22;44257;44.804;10.220;2023-07-29T11:47:09;32.90;91.70
58469;DHT22;44257;44.804;10.220;2023-07-29T11:49:37;33.10;91.80
58469;DHT22;44257;44.804;10.220;2023-07-29T11:52:05;33.40;91.00
58469;DHT22;44257;44.804;10.220;2023-07-29T11:54:31;33.50;90.90
58469;DHT22;44257;44.804;10.220;2023-07-29T11:56:57;33.70;91.60
58469;DHT22;44257;44.804;10.220;2023-07-29T11:59:23;33.90;91.10
58469;DHT22;44257;44.804;10.220;2023-07-29T12:01:49;34.00;89.50
58469;DHT22;44257;44.804;10.220;2023-07-29T12:04:16;33.80;90.10
58469;DHT22;44257;44.804;10.220;2023-07-29T12:06:42;33.60;90.10
58469;DHT22;44257;44.804;10.220;2023-07-29T12:09:08;33.50;90.60
58469;DHT22;44257;44.804;10.220;2023-07-29T12:11:35;33.50;90.90
58469;DHT22;44257;44.804;10.220;2023-07-29T12:14:01;33.60;90.50
58469;DHT22;44257;44.804;10.220;2023-07-29T12:16:26;33.70;91.70
58469;DHT22;44257;44.804;10.220;2023-07-29T12:18:52;34.00;91.40
58469;DHT22;44257;44.804;10.220;2023-07-29T12:21:19;34.40;90.70
58469;DHT22;44257;44.804;10.220;2023-07-29T12:23:45;34.60;91.30
58469;DHT22;44257;44.804;10.220;2023-07-29T12:26:11;35.00;91.60
58469;DHT22;44257;44.804;10.220;2023-07-29T12:28:36;35.20;91.10
58469;DHT22;44257;44.804;10.220;2023-07-29T12:31:07;35.50;90.50
58469;DHT22;44257;44.804;10.220;2023-07-29T12:33:35;35.60;90.40
58469;DHT22;44257;44.804;10.220;2023-07-29T12:36:02;35.60;88.60
58469;DHT22;44257;44.804;10.220;2023-07-29T12:38:31;35.60;88.30
58469;DHT22;44257;44.804;10.220;2023-07-29T12:40:57;35.50;88.10
58469;DHT22;44257;44.804;10.220;2023-07-29T12:43:22;35.30;85.50
58469;DHT22;44257;44.804;10.220;2023-07-29T12:45:52;35.10;84.70
58469;DHT22;44257;44.804;10.220;2023-07-29T12:48:17;35.00;86.70
58469;DHT22;44257;44.804;10.220;2023-07-29T12:50:43;35.10;88.40
58469;DHT22;44257;44.804;10.220;2023-07-29T12:53:09;35.40;89.00
58469;DHT22;44257;44.804;10.220;2023-07-29T12:55:36;35.60;88.70
58469;DHT22;44257;44.804;10.220;2023-07-29T12:58:02;35.70;83.60
58469;DHT22;44257;44.804;10.220;2023-07-29T13:00:29;35.70;86.50
58469;DHT22;44257;44.804;10.220;2023-07-29T13:02:55;35.70;86.40
58469;DHT22;44257;44.804;10.220;2023-07-29T13:05:21;35.70;86.80
58469;DHT22;44257;44.804;10.220;2023-07-29T13:07:46;35.60;86.10
58469;DHT22;44257;44.804;10.220;2023-07-29T13:10:13;35.40;83.80
58469;DHT22;44257;44.804;10.220;2023-07-29T13:12:39;35.30;87.00
58469;DHT22;44257;44.804;10.220;2023-07-29T13:15:06;35.20;86.60
58469;DHT22;44257;44.804;10.220;2023-07-29T13:17:33;35.10;88.60
58469;DHT22;44257;44.804;10.220;2023-07-29T13:19:59;34.90;88.50
58469;DHT22;44257;44.804;10.220;2023-07-29T13:22:25;34.90;89.20
58469;DHT22;44257;44.804;10.220;2023-07-29T13:24:51;34.80;89.50
58469;DHT22;44257;44.804;10.220;2023-07-29T13:27:17;34.90;89.80
58469;DHT22;44257;44.804;10.220;2023-07-29T13:29:43;35.10;88.40
58469;DHT22;44257;44.804;10.220;2023-07-29T13:32:09;35.50;86.40
58469;DHT22;44257;44.804;10.220;2023-07-29T13:34:35;35.80;83.90
58469;DHT22;44257;44.804;10.220;2023-07-29T13:37:01;35.80;86.40
58469;DHT22;44257;44.804;10.220;2023-07-29T13:39:27;35.70;85.10
58469;DHT22;44257;44.804;10.220;2023-07-29T13:41:54;35.60;85.30
58469;DHT22;44257;44.804;10.220;2023-07-29T13:44:20;35.50;86.30
58469;DHT22;44257;44.804;10.220;2023-07-29T13:46:45;35.60;85.20
58469;DHT22;44257;44.804;10.220;2023-07-29T13:49:11;35.70;85.30
58469;DHT22;44257;44.804;10.220;2023-07-29T13:51:37;36.00;86.90
58469;DHT22;44257;44.804;10.220;2023-07-29T13:54:03;36.30;86.40
58469;DHT22;44257;44.804;10.220;2023-07-29T13:56:29;36.70;84.60
58469;DHT22;44257;44.804;10.220;2023-07-29T13:58:54;36.90;82.90
58469;DHT22;44257;44.804;10.220;2023-07-29T14:01:20;37.00;83.60
58469;DHT22;44257;44.804;10.220;2023-07-29T14:03:46;37.20;81.50
58469;DHT22;44257;44.804;10.220;2023-07-29T14:06:12;37.10;80.90
58469;DHT22;44257;44.804;10.220;2023-07-29T14:08:38;37.10;80.60
58469;DHT22;44257;44.804;10.220;2023-07-29T14:11:06;37.10;80.70
58469;DHT22;44257;44.804;10.220;2023-07-29T14:13:32;37.00;78.30
58469;DHT22;44257;44.804;10.220;2023-07-29T14:16:03;37.00;79.50
58469;DHT22;44257;44.804;10.220;2023-07-29T14:18:29;36.90;78.20
58469;DHT22;44257;44.804;10.220;2023-07-29T14:20:55;36.90;76.20
58469;DHT22;44257;44.804;10.220;2023-07-29T14:23:21;36.90;80.00
58469;DHT22;44257;44.804;10.220;2023-07-29T14:25:47;36.90;78.40
58469;DHT22;44257;44.804;10.220;2023-07-29T14:28:14;37.00;79.20
58469;DHT22;44257;44.804;10.220;2023-07-29T14:30:40;36.80;77.40
58469;DHT22;44257;44.804;10.220;2023-07-29T14:33:07;36.60;76.70
58469;DHT22;44257;44.804;10.220;2023-07-29T14:35:33;36.50;79.40
58469;DHT22;44257;44.804;10.220;2023-07-29T14:37:58;36.50;80.50
58469;DHT22;44257;44.804;10.220;2023-07-29T14:40:24;36.50;79.30
58469;DHT22;44257;44.804;10.220;2023-07-29T14:42:50;36.50;79.70
58469;DHT22;44257;44.804;10.220;2023-07-29T14:45:16;36.30;79.70
58469;DHT22;44257;44.804;10.220;2023-07-29T14:47:42;36.20;79.40
58469;DHT22;44257;44.804;10.220;2023-07-29T14:50:08;36.20;79.30
58469;DHT22;44257;44.804;10.220;2023-07-29T14:52:33;36.00;79.30
58469;DHT22;44257;44.804;10.220;2023-07-29T14:54:59;35.90;80.40
58469;DHT22;44257;44.804;10.220;2023-07-29T14:57:25;35.80;81.60
58469;DHT22;44257;44.804;10.220;2023-07-29T14:59:51;35.70;81.10
58469;DHT22;44257;44.804;10.220;2023-07-29T15:02:17;35.70;79.80
58469;DHT22;44257;44.804;10.220;2023-07-29T15:04:43;35.90;80.10
58469;DHT22;44257;44.804;10.220;2023-07-29T15:07:09;36.10;79.70
58469;DHT22;44257;44.804;10.220;2023-07-29T15:09:35;36.30;79.20
58469;DHT22;44257;44.804;10.220;2023-07-29T15:12:02;36.40;79.10
58469;DHT22;44257;44.804;10.220;2023-07-29T15:14:27;36.40;77.40
58469;DHT22;44257;44.804;10.220;2023-07-29T15:16:53;36.50;78.30
58469;DHT22;44257;44.804;10.220;2023-07-29T15:19:19;36.50;79.00
58469;DHT22;44257;44.804;10.220;2023-07-29T15:21:45;36.50;79.90
58469;DHT22;44257;44.804;10.220;2023-07-29T15:24:12;36.50;78.80
58469;DHT22;44257;44.804;10.220;2023-07-29T15:26:39;36.50;78.50
58469;DHT22;44257;44.804;10.220;2023-07-29T15:29:05;36.40;75.60
58469;DHT22;44257;44.804;10.220;2023-07-29T15:31:34;36.20;76.20
58469;DHT22;44257;44.804;10.220;2023-07-29T15:34:00;36.10;79.00
58469;DHT22;44257;44.804;10.220;2023-07-29T15:36:25;35.90;78.50